createdAt,value
2022-11-04T00:00:51.674Z,999.96
2022-11-04T00:01:51.701Z,999.94
2022-11-04T00:02:51.644Z,999.92
2022-11-04T00:03:51.546Z,999.89
2022-11-04T00:04:51.547Z,999.89
2022-11-04T00:05:51.540Z,999.96
2022-11-04T00:06:51.714Z,999.95
2022-11-04T00:07:51.505Z,999.99
2022-11-04T00:08:51.483Z,999.99
2022-11-04T00:09:51.477Z,999.95
2022-11-04T00:10:51.500Z,1000.08
2022-11-04T00:11:51.457Z,999.98
2022-11-04T00:12:51.431Z,1000.02
2022-11-04T00:13:51.477Z,1000.03
2022-11-04T00:14:51.403Z,1000.07
2022-11-04T00:15:51.665Z,1000.09
2022-11-04T00:16:51.377Z,1000.09
2022-11-04T00:17:51.413Z,1000.14
2022-11-04T00:18:51.401Z,1000.15
2022-11-04T00:19:51.343Z,1000.17
2022-11-04T00:20:51.354Z,1000.24
2022-11-04T00:21:51.315Z,1000.20
2022-11-04T00:22:59.353Z,1000.22
2022-11-04T00:23:51.304Z,1000.29
2022-11-04T00:24:51.267Z,1000.20
2022-11-04T00:25:51.292Z,1000.22
2022-11-04T00:26:51.411Z,1000.19
2022-11-04T00:27:51.240Z,1000.36
2022-11-04T00:28:51.235Z,1000.31
2022-11-04T00:29:51.224Z,1000.38
2022-11-04T00:30:51.222Z,1000.41
2022-11-04T00:31:51.181Z,1000.38
2022-11-04T00:32:51.191Z,1000.34
2022-11-04T00:33:51.164Z,1000.27
2022-11-04T00:34:51.174Z,1000.23
2022-11-04T00:35:51.159Z,1000.30
2022-11-04T00:36:51.240Z,1000.29
2022-11-04T00:37:51.109Z,1000.33
2022-11-04T00:38:51.111Z,1000.38
2022-11-04T00:39:51.092Z,1000.38
2022-11-04T00:40:51.111Z,1000.39
2022-11-04T00:41:51.048Z,1000.37
2022-11-04T00:42:51.799Z,1000.37
2022-11-04T00:43:51.037Z,1000.39
2022-11-04T00:44:51.031Z,1000.43
2022-11-04T00:45:51.061Z,1000.41
2022-11-04T00:46:51.169Z,1000.41
2022-11-04T00:47:50.988Z,1000.47
2022-11-04T00:48:50.999Z,1000.47
2022-11-04T00:49:51.799Z,1000.44
2022-11-04T00:50:51.146Z,1000.38
2022-11-04T00:51:51.056Z,1000.48
2022-11-04T00:52:50.925Z,1000.43
2022-11-04T00:53:50.925Z,1000.48
2022-11-04T00:54:50.911Z,1000.53
2022-11-04T00:55:50.899Z,1000.50
2022-11-04T00:56:50.866Z,1000.52
2022-11-04T00:57:50.860Z,1000.50
2022-11-04T00:58:50.837Z,1000.55
2022-11-04T00:59:50.825Z,1000.59
2022-11-04T01:00:50.910Z,1000.58
2022-11-04T01:01:51.122Z,1000.66
2022-11-04T01:02:50.807Z,1000.73
2022-11-04T01:03:50.789Z,1000.71
2022-11-04T01:04:50.778Z,1000.78
2022-11-04T01:05:50.776Z,1000.76
2022-11-04T01:06:50.758Z,1000.76
2022-11-04T01:07:50.721Z,1000.73
2022-11-04T01:08:50.717Z,1000.80
2022-11-04T01:09:50.707Z,1000.83
2022-11-04T01:10:50.698Z,1000.82
2022-11-04T01:11:50.768Z,1000.79
2022-11-04T01:12:50.664Z,1000.96
2022-11-04T01:13:50.664Z,1000.97
2022-11-04T01:14:50.656Z,1000.90
2022-11-04T01:15:50.664Z,1000.97
2022-11-04T01:16:50.613Z,1000.86
2022-11-04T01:17:50.604Z,1000.85
2022-11-04T01:18:50.597Z,1000.88
2022-11-04T01:19:50.592Z,1000.93
2022-11-04T01:20:50.566Z,1000.93
2022-11-04T01:21:50.624Z,1001.01
2022-11-04T01:22:50.555Z,1000.93
2022-11-04T01:23:50.512Z,1001.02
2022-11-04T01:24:50.511Z,1001.02
2022-11-04T01:25:50.506Z,1001.02
2022-11-04T01:26:50.514Z,1001.07
2022-11-04T01:27:50.484Z,1001.04
2022-11-04T01:28:50.475Z,1001.09
2022-11-04T01:29:50.451Z,1001.07
2022-11-04T01:30:50.430Z,1001.10
2022-11-04T01:31:50.509Z,1001.15
2022-11-04T01:32:50.424Z,1001.18
2022-11-04T01:33:50.390Z,1001.14
2022-11-04T01:34:50.377Z,1001.15
2022-11-04T01:35:50.360Z,1001.22
2022-11-04T01:36:50.379Z,1001.22
2022-11-04T01:37:50.336Z,1001.29
2022-11-04T01:38:50.346Z,1001.24
2022-11-04T01:39:50.322Z,1001.22
2022-11-04T01:40:50.312Z,1001.25
2022-11-04T01:41:50.345Z,1001.22
2022-11-04T01:42:50.293Z,1001.22
2022-11-04T01:43:50.263Z,1001.22
2022-11-04T01:44:50.261Z,1001.17
2022-11-04T01:45:50.239Z,1001.20
2022-11-04T01:46:50.229Z,1001.21
2022-11-04T01:47:50.208Z,1001.14
2022-11-04T01:48:50.197Z,1001.22
2022-11-04T01:49:50.180Z,1001.31
2022-11-04T01:50:50.178Z,1001.23
2022-11-04T01:51:50.286Z,1001.22
2022-11-04T01:52:50.145Z,1001.30
2022-11-04T01:53:50.151Z,1001.30
2022-11-04T01:54:50.125Z,1001.32
2022-11-04T01:55:50.120Z,1001.30
2022-11-04T01:56:50.132Z,1001.33
2022-11-04T01:57:50.080Z,1001.29
2022-11-04T01:58:50.068Z,1001.29
2022-11-04T01:59:50.061Z,1001.44
2022-11-04T02:00:50.055Z,1001.36
2022-11-04T02:01:50.265Z,1001.39
2022-11-04T02:02:50.049Z,1001.42
2022-11-04T02:03:50.019Z,1001.39
2022-11-04T02:04:49.996Z,1001.42
2022-11-04T02:05:49.999Z,1001.41
2022-11-04T02:06:50.120Z,1001.36
2022-11-04T02:07:49.967Z,1001.37
2022-11-04T02:08:49.955Z,1001.42
2022-11-04T02:09:49.923Z,1001.33
2022-11-04T02:10:49.928Z,1001.41
2022-11-04T02:11:49.976Z,1001.40
2022-11-04T02:12:49.890Z,1001.40
2022-11-04T02:13:49.889Z,1001.45
2022-11-04T02:14:49.878Z,1001.45
2022-11-04T02:15:49.858Z,1001.43
2022-11-04T02:16:49.879Z,1001.44
2022-11-04T02:17:49.843Z,1001.41
2022-11-04T02:18:49.847Z,1001.39
2022-11-04T02:19:49.818Z,1001.41
2022-11-04T02:20:49.796Z,1001.33
2022-11-04T02:21:49.829Z,1001.37
2022-11-04T02:22:49.787Z,1001.33
2022-11-04T02:23:49.744Z,1001.28
2022-11-04T02:24:49.747Z,1001.27
2022-11-04T02:25:49.714Z,1001.23
2022-11-04T02:26:49.824Z,1001.21
2022-11-04T02:27:49.704Z,1001.29
2022-11-04T02:28:49.688Z,1001.17
2022-11-04T02:29:49.662Z,1001.20
2022-11-04T02:30:49.695Z,1001.23
2022-11-04T02:31:49.703Z,1001.16
2022-11-04T02:32:49.633Z,1001.20
2022-11-04T02:33:49.611Z,1001.23
2022-11-04T02:34:49.617Z,1001.25
2022-11-04T02:35:49.604Z,1001.21
2022-11-04T02:36:49.606Z,1001.25
2022-11-04T02:37:49.632Z,1001.26
2022-11-04T02:38:49.565Z,1001.21
2022-11-04T02:39:49.554Z,1001.25
2022-11-04T02:40:49.533Z,1001.28
2022-11-04T02:41:49.558Z,1001.20
2022-11-04T02:42:49.491Z,1001.21
2022-11-04T02:43:49.502Z,1001.27
2022-11-04T02:44:49.481Z,1001.19
2022-11-04T02:45:49.473Z,1001.22
2022-11-04T02:46:49.646Z,1001.30
2022-11-04T02:47:49.452Z,1001.22
2022-11-04T02:48:49.441Z,1001.35
2022-11-04T02:49:49.451Z,1001.29
2022-11-04T02:50:49.389Z,1001.29
2022-11-04T02:51:49.410Z,1001.34
2022-11-04T02:52:51.310Z,1001.35
2022-11-04T02:53:49.372Z,1001.34
2022-11-04T02:54:49.363Z,1001.32
2022-11-04T02:55:49.352Z,1001.43
2022-11-04T02:56:49.386Z,1001.40
2022-11-04T02:57:49.321Z,1001.42
2022-11-04T02:58:49.312Z,1001.38
2022-11-04T02:59:49.301Z,1001.44
2022-11-04T03:00:49.306Z,1001.41
2022-11-04T03:01:49.527Z,1001.40
2022-11-04T03:02:49.268Z,1001.36
2022-11-04T03:03:49.241Z,1001.37
2022-11-04T03:04:49.223Z,1001.35
2022-11-04T03:05:49.207Z,1001.29
2022-11-04T03:06:49.326Z,1001.33
2022-11-04T03:07:49.208Z,1001.30
2022-11-04T03:08:49.159Z,1001.31
2022-11-04T03:09:49.158Z,1001.30
2022-11-04T03:10:49.151Z,1001.33
2022-11-04T03:11:49.159Z,1001.28
2022-11-04T03:12:49.140Z,1001.28
2022-11-04T03:13:49.117Z,1001.30
2022-11-04T03:14:49.086Z,1001.25
2022-11-04T03:15:49.109Z,1001.23
2022-11-04T03:16:49.179Z,1001.18
2022-11-04T03:17:49.108Z,1001.20
2022-11-04T03:18:49.052Z,1001.18
2022-11-04T03:19:49.058Z,1001.18
2022-11-04T03:20:49.033Z,1001.17
2022-11-04T03:21:49.106Z,1001.19
2022-11-04T03:22:48.996Z,1001.17
2022-11-04T03:23:49.007Z,1001.13
2022-11-04T03:24:48.967Z,1001.17
2022-11-04T03:25:48.974Z,1001.08
2022-11-04T03:26:49.029Z,1001.14
2022-11-04T03:27:48.925Z,1001.11
2022-11-04T03:28:48.946Z,1001.19
2022-11-04T03:29:48.905Z,1001.16
2022-11-04T03:30:48.894Z,1001.13
2022-11-04T03:31:48.905Z,1001.18
2022-11-04T03:32:48.866Z,1001.19
2022-11-04T03:33:48.870Z,1001.22
2022-11-04T03:34:48.855Z,1001.15
2022-11-04T03:35:48.822Z,1001.20
2022-11-04T03:36:48.921Z,1001.22
2022-11-04T03:37:48.813Z,1001.24
2022-11-04T03:38:48.815Z,1001.20
2022-11-04T03:39:48.793Z,1001.25
2022-11-04T03:40:48.752Z,1001.21
2022-11-04T03:41:48.804Z,1001.23
2022-11-04T03:42:49.793Z,1001.23
2022-11-04T03:43:48.750Z,1001.18
2022-11-04T03:44:48.703Z,1001.23
2022-11-04T03:45:48.705Z,1001.24
2022-11-04T03:46:48.792Z,1001.21
2022-11-04T03:47:48.673Z,1001.20
2022-11-04T03:48:48.664Z,1001.16
2022-11-04T03:49:48.642Z,1001.17
2022-11-04T03:50:48.621Z,1001.17
2022-11-04T03:51:49.571Z,1001.15
2022-11-04T03:52:48.629Z,1001.15
2022-11-04T03:53:48.606Z,1001.18
2022-11-04T03:54:48.583Z,1001.16
2022-11-04T03:55:48.574Z,1001.17
2022-11-04T03:56:48.639Z,1001.13
2022-11-04T03:57:48.539Z,1001.14
2022-11-04T03:58:48.548Z,1001.07
2022-11-04T03:59:48.523Z,1001.09
2022-11-04T04:00:48.591Z,1001.15
2022-11-04T04:01:48.652Z,1001.15
2022-11-04T04:02:48.478Z,1001.14
2022-11-04T04:03:48.469Z,1001.14
2022-11-04T04:04:48.446Z,1001.17
2022-11-04T04:05:48.534Z,1001.11
2022-11-04T04:06:48.493Z,1001.17
2022-11-04T04:07:48.412Z,1001.19
2022-11-04T04:08:48.404Z,1001.18
2022-11-04T04:09:48.385Z,1001.19
2022-11-04T04:10:48.368Z,1001.17
2022-11-04T04:11:48.384Z,1001.21
2022-11-04T04:12:48.338Z,1001.23
2022-11-04T04:13:48.357Z,1001.20
2022-11-04T04:14:48.475Z,1001.22
2022-11-04T04:15:48.303Z,1001.32
2022-11-04T04:16:48.322Z,1001.26
2022-11-04T04:17:48.302Z,1001.34
2022-11-04T04:18:49.743Z,1001.30
2022-11-04T04:19:48.247Z,1001.19
2022-11-04T04:20:48.249Z,1001.24
2022-11-04T04:21:48.261Z,1001.20
2022-11-04T04:22:48.227Z,1001.23
2022-11-04T04:23:48.206Z,1001.19
2022-11-04T04:24:48.182Z,1001.23
2022-11-04T04:25:48.189Z,1001.23
2022-11-04T04:26:48.226Z,1001.21
2022-11-04T04:27:48.146Z,1001.20
2022-11-04T04:28:48.159Z,1001.20
2022-11-04T04:29:48.146Z,1001.21
2022-11-04T04:30:48.117Z,1001.26
2022-11-04T04:31:48.145Z,1001.25
2022-11-04T04:32:48.086Z,1001.19
2022-11-04T04:33:48.084Z,1001.23
2022-11-04T04:34:48.068Z,1001.21
2022-11-04T04:35:48.065Z,1001.23
2022-11-04T04:36:48.097Z,1001.24
2022-11-04T04:37:48.035Z,1001.26
2022-11-04T04:38:48.048Z,1001.27
2022-11-04T04:39:48.006Z,1001.34
2022-11-04T04:40:48.016Z,1001.29
2022-11-04T04:41:47.994Z,1001.33
2022-11-04T04:42:47.966Z,1001.36
2022-11-04T04:43:47.952Z,1001.38
2022-11-04T04:44:47.923Z,1001.38
2022-11-04T04:45:47.967Z,1001.42
2022-11-04T04:46:47.918Z,1001.45
2022-11-04T04:47:47.892Z,1001.41
2022-11-04T04:48:47.895Z,1001.40
2022-11-04T04:49:47.871Z,1001.37
2022-11-04T04:50:47.855Z,1001.41
2022-11-04T04:51:47.854Z,1001.39
2022-11-04T04:52:47.822Z,1001.37
2022-11-04T04:53:47.820Z,1001.37
2022-11-04T04:54:47.834Z,1001.36
2022-11-04T04:55:47.805Z,1001.45
2022-11-04T04:56:47.818Z,1001.42
2022-11-04T04:57:47.766Z,1001.40
2022-11-04T04:58:47.764Z,1001.38
2022-11-04T04:59:47.773Z,1001.40
2022-11-04T05:00:47.867Z,1001.40
2022-11-04T05:01:47.940Z,1001.41
2022-11-04T05:02:47.711Z,1001.32
2022-11-04T05:03:47.689Z,1001.37
2022-11-04T05:04:47.705Z,1001.35
2022-11-04T05:05:47.659Z,1001.30
2022-11-04T05:06:47.742Z,1001.36
2022-11-04T05:07:47.633Z,1001.33
2022-11-04T05:08:47.644Z,1001.31
2022-11-04T05:09:47.621Z,1001.34
2022-11-04T05:10:47.609Z,1001.29
2022-11-04T05:11:47.623Z,1001.34
2022-11-04T05:12:47.570Z,1001.33
2022-11-04T05:13:47.548Z,1001.30
2022-11-04T05:14:47.547Z,1001.33
2022-11-04T05:15:47.541Z,1001.27
2022-11-04T05:16:47.537Z,1001.30
2022-11-04T05:17:47.504Z,1001.36
2022-11-04T05:18:47.501Z,1001.33
2022-11-04T05:19:47.510Z,1001.32
2022-11-04T05:20:47.476Z,1001.27
2022-11-04T05:21:47.448Z,1001.33
2022-11-04T05:22:47.428Z,1001.35
2022-11-04T05:23:47.496Z,1001.32
2022-11-04T05:24:47.426Z,1001.32
2022-11-04T05:25:47.407Z,1001.39
2022-11-04T05:26:47.413Z,1001.48
2022-11-04T05:27:47.377Z,1001.38
2022-11-04T05:28:47.369Z,1001.48
2022-11-04T05:29:47.364Z,1001.48
2022-11-04T05:30:47.326Z,1001.50
2022-11-04T05:31:47.330Z,1001.47
2022-11-04T05:32:47.302Z,1001.53
2022-11-04T05:33:47.308Z,1001.54
2022-11-04T05:34:47.296Z,1001.55
2022-11-04T05:35:47.278Z,1001.52
2022-11-04T05:36:47.283Z,1001.47
2022-11-04T05:37:47.235Z,1001.50
2022-11-04T05:38:47.242Z,1001.50
2022-11-04T05:39:47.225Z,1001.51
2022-11-04T05:40:47.194Z,1001.52
2022-11-04T05:41:47.183Z,1001.55
2022-11-04T05:42:47.178Z,1001.52
2022-11-04T05:43:47.164Z,1001.54
2022-11-04T05:44:47.175Z,1001.58
2022-11-04T05:45:47.133Z,1001.65
2022-11-04T05:46:47.213Z,1001.63
2022-11-04T05:47:47.115Z,1001.60
2022-11-04T05:48:47.115Z,1001.69
2022-11-04T05:49:47.116Z,1001.63
2022-11-04T05:50:47.083Z,1001.65
2022-11-04T05:51:47.124Z,1001.62
2022-11-04T05:52:47.081Z,1001.66
2022-11-04T05:53:47.053Z,1001.71
2022-11-04T05:54:47.079Z,1001.73
2022-11-04T05:55:47.029Z,1001.67
2022-11-04T05:56:46.994Z,1001.63
2022-11-04T05:57:47.001Z,1001.70
2022-11-04T05:58:46.987Z,1001.67
2022-11-04T05:59:46.973Z,1001.68
2022-11-04T06:00:46.941Z,1001.62
2022-11-04T06:01:47.173Z,1001.64
2022-11-04T06:02:46.994Z,1001.62
2022-11-04T06:03:46.908Z,1001.62
2022-11-04T06:04:46.910Z,1001.61
2022-11-04T06:05:46.903Z,1001.69
2022-11-04T06:06:46.910Z,1001.66
2022-11-04T06:07:46.852Z,1001.68
2022-11-04T06:08:46.843Z,1001.63
2022-11-04T06:09:46.856Z,1001.66
2022-11-04T06:10:46.809Z,1001.69
2022-11-04T06:11:46.835Z,1001.70
2022-11-04T06:12:46.779Z,1001.73
2022-11-04T06:13:46.776Z,1001.68
2022-11-04T06:14:46.793Z,1001.71
2022-11-04T06:15:46.763Z,1001.71
2022-11-04T06:16:46.753Z,1001.76
2022-11-04T06:17:46.723Z,1001.74
2022-11-04T06:18:46.709Z,1001.77
2022-11-04T06:19:46.733Z,1001.81
2022-11-04T06:20:46.689Z,1001.76
2022-11-04T06:21:46.689Z,1001.84
2022-11-04T06:22:46.658Z,1001.85
2022-11-04T06:23:46.660Z,1001.85
2022-11-04T06:25:01.380Z,1001.90
2022-11-04T06:25:46.638Z,1001.96
2022-11-04T06:26:46.629Z,1001.93
2022-11-04T06:27:46.593Z,1001.96
2022-11-04T06:28:46.585Z,1001.91
2022-11-04T06:29:46.577Z,1001.90
2022-11-04T06:30:46.567Z,1001.91
2022-11-04T06:31:46.545Z,1002.02
2022-11-04T06:32:46.536Z,1002.00
2022-11-04T06:33:46.543Z,1002.03
2022-11-04T06:34:46.520Z,1002.06
2022-11-04T06:35:46.508Z,1002.12
2022-11-04T06:36:46.515Z,1002.09
2022-11-04T06:37:46.478Z,1002.09
2022-11-04T06:38:46.461Z,1002.18
2022-11-04T06:39:46.443Z,1002.12
2022-11-04T06:40:46.447Z,1002.17
2022-11-04T06:41:50.454Z,1002.18
2022-11-04T06:42:47.403Z,1002.16
2022-11-04T06:43:46.418Z,1002.14
2022-11-04T06:44:46.380Z,1002.13
2022-11-04T06:45:46.398Z,1002.11
2022-11-04T06:46:46.360Z,1002.19
2022-11-04T06:47:46.341Z,1002.14
2022-11-04T06:48:46.343Z,1002.17
2022-11-04T06:49:46.457Z,1002.19
2022-11-04T06:50:46.326Z,1002.17
2022-11-04T06:51:46.350Z,1002.17
2022-11-04T06:52:46.300Z,1002.16
2022-11-04T06:53:46.285Z,1002.22
2022-11-04T06:54:46.255Z,1002.21
2022-11-04T06:55:46.255Z,1002.20
2022-11-04T06:56:46.279Z,1002.22
2022-11-04T06:57:46.210Z,1002.28
2022-11-04T06:58:46.283Z,1002.26
2022-11-04T06:59:46.207Z,1002.27
2022-11-04T07:00:46.283Z,1002.31
2022-11-04T07:01:46.421Z,1002.30
2022-11-04T07:02:46.263Z,1002.29
2022-11-04T07:03:46.161Z,1002.29
2022-11-04T07:04:46.211Z,1002.31
2022-11-04T07:05:46.118Z,1002.32
2022-11-04T07:06:46.179Z,1002.27
2022-11-04T07:07:46.103Z,1002.32
2022-11-04T07:08:46.079Z,1002.37
2022-11-04T07:09:46.049Z,1002.33
2022-11-04T07:10:46.069Z,1002.34
2022-11-04T07:11:46.029Z,1002.33
2022-11-04T07:12:46.030Z,1002.36
2022-11-04T07:13:46.017Z,1002.37
2022-11-04T07:14:45.995Z,1002.41
2022-11-04T07:15:46.004Z,1002.44
2022-11-04T07:16:46.022Z,1002.38
2022-11-04T07:17:46.005Z,1002.38
2022-11-04T07:18:45.938Z,1002.45
2022-11-04T07:19:45.932Z,1002.46
2022-11-04T07:20:45.929Z,1002.44
2022-11-04T07:21:45.926Z,1002.52
2022-11-04T07:22:45.942Z,1002.61
2022-11-04T07:23:45.881Z,1002.54
2022-11-04T07:24:45.868Z,1002.60
2022-11-04T07:25:45.869Z,1002.59
2022-11-04T07:26:45.880Z,1002.62
2022-11-04T07:27:45.845Z,1002.68
2022-11-04T07:28:45.831Z,1002.69
2022-11-04T07:29:45.794Z,1002.67
2022-11-04T07:30:45.793Z,1002.71
2022-11-04T07:31:45.843Z,1002.75
2022-11-04T07:32:45.771Z,1002.79
2022-11-04T07:33:45.745Z,1002.75
2022-11-04T07:34:45.734Z,1002.81
2022-11-04T07:35:45.729Z,1002.85
2022-11-04T07:36:45.735Z,1002.87
2022-11-04T07:37:45.707Z,1002.82
2022-11-04T07:38:45.706Z,1002.86
2022-11-04T07:39:45.685Z,1002.82
2022-11-04T07:40:45.704Z,1002.88
2022-11-04T07:41:45.678Z,1002.92
2022-11-04T07:42:45.650Z,1002.93
2022-11-04T07:43:45.658Z,1003.03
2022-11-04T07:44:45.614Z,1003.02
2022-11-04T07:45:45.606Z,1003.03
2022-11-04T07:46:45.627Z,1002.96
2022-11-04T07:47:45.610Z,1003.08
2022-11-04T07:48:45.574Z,1003.09
2022-11-04T07:49:45.652Z,1003.11
2022-11-04T07:50:45.538Z,1003.09
2022-11-04T07:51:45.541Z,1003.12
2022-11-04T07:52:45.527Z,1003.16
2022-11-04T07:53:45.538Z,1003.14
2022-11-04T07:54:45.515Z,1003.15
2022-11-04T07:55:45.466Z,1003.18
2022-11-04T07:56:45.476Z,1003.15
2022-11-04T07:57:45.482Z,1003.20
2022-11-04T07:58:45.431Z,1003.18
2022-11-04T07:59:45.401Z,1003.26
2022-11-04T08:00:45.416Z,1003.16
2022-11-04T08:01:45.558Z,1003.19
2022-11-04T08:02:45.452Z,1003.19
2022-11-04T08:03:45.419Z,1003.18
2022-11-04T08:04:45.384Z,1003.13
2022-11-04T08:05:45.375Z,1003.12
2022-11-04T08:06:45.389Z,1003.15
2022-11-04T08:07:45.334Z,1003.12
2022-11-04T08:08:45.382Z,1003.19
2022-11-04T08:09:45.335Z,1003.12
2022-11-04T08:10:45.304Z,1003.20
2022-11-04T08:11:45.272Z,1003.16
2022-11-04T08:12:45.273Z,1003.20
2022-11-04T08:13:52.818Z,1003.23
2022-11-04T08:18:03.098Z,1003.22
2022-11-04T08:19:02.991Z,1003.20
2022-11-04T08:20:02.987Z,1003.17
2022-11-04T08:21:02.912Z,1003.18
2022-11-04T08:22:02.960Z,1003.14
2022-11-04T08:23:02.895Z,1003.17
2022-11-04T08:24:02.899Z,1003.13
2022-11-04T08:25:02.906Z,1003.10
2022-11-04T08:26:02.899Z,1003.14
2022-11-04T08:27:02.907Z,1003.18
2022-11-04T08:28:02.876Z,1003.17
2022-11-04T08:29:03.334Z,1003.17
2022-11-04T08:30:02.833Z,1003.16
2022-11-04T08:31:02.945Z,1003.16
2022-11-04T08:32:02.909Z,1003.17
2022-11-04T08:33:02.906Z,1003.20
2022-11-04T08:34:02.852Z,1003.19
2022-11-04T08:35:02.794Z,1003.18
2022-11-04T08:36:02.806Z,1003.22
2022-11-04T08:37:02.755Z,1003.14
2022-11-04T08:38:02.736Z,1003.19
2022-11-04T08:39:08.937Z,1003.21
2022-11-04T08:40:03.673Z,1003.19
2022-11-04T08:41:02.717Z,1003.20
2022-11-04T08:42:02.800Z,1003.21
2022-11-04T08:43:02.673Z,1003.20
2022-11-04T08:44:02.647Z,1003.13
2022-11-04T08:45:02.632Z,1003.14
2022-11-04T08:46:02.622Z,1003.13
2022-11-04T08:47:02.651Z,1003.15
2022-11-04T08:48:05.904Z,1003.13
2022-11-04T08:49:07.008Z,1003.10
2022-11-04T08:51:18.203Z,1003.19
2022-11-04T08:52:18.216Z,1003.21
2022-11-04T08:53:18.064Z,1003.24
2022-11-04T08:54:29.741Z,1003.23
2022-11-04T08:55:18.088Z,1003.29
2022-11-04T08:56:18.047Z,1003.30
2022-11-04T08:57:18.259Z,1003.30
2022-11-04T08:58:18.068Z,1003.32
2022-11-04T08:59:18.061Z,1003.29
2022-11-04T09:00:18.022Z,1003.24
2022-11-04T09:01:18.033Z,1003.26
2022-11-04T09:02:17.999Z,1003.24
2022-11-04T09:03:17.955Z,1003.26
2022-11-04T09:04:18.067Z,1003.24
2022-11-04T09:05:17.942Z,1003.28
2022-11-04T09:06:17.930Z,1003.23
2022-11-04T09:07:17.971Z,1003.24
2022-11-04T09:08:17.886Z,1003.27
2022-11-04T09:09:17.903Z,1003.24
2022-11-04T09:10:17.851Z,1003.23
2022-11-04T09:11:17.857Z,1003.30
2022-11-04T09:12:17.869Z,1003.28
2022-11-04T09:13:17.814Z,1003.30
2022-11-04T09:14:17.853Z,1003.29
2022-11-04T09:15:17.809Z,1003.28
2022-11-04T09:16:17.789Z,1003.32
2022-11-04T09:17:17.779Z,1003.34
2022-11-04T09:18:17.763Z,1003.36
2022-11-04T09:19:17.747Z,1003.35
2022-11-04T09:20:17.754Z,1003.32
2022-11-04T09:21:17.707Z,1003.30
2022-11-04T09:22:17.732Z,1003.31
2022-11-04T09:23:17.708Z,1003.32
2022-11-04T09:24:17.673Z,1003.26
2022-11-04T09:25:17.655Z,1003.30
2022-11-04T09:26:17.675Z,1003.22
2022-11-04T09:27:17.647Z,1003.24
2022-11-04T09:28:17.645Z,1003.26
2022-11-04T09:29:17.645Z,1003.25
2022-11-04T09:30:17.631Z,1003.22
2022-11-04T09:31:17.596Z,1003.19
2022-11-04T09:32:18.633Z,1003.11
2022-11-04T09:33:17.594Z,1003.13
2022-11-04T09:34:17.905Z,1003.11
2022-11-04T09:35:17.728Z,1003.13
2022-11-04T09:36:17.674Z,1003.14
2022-11-04T09:37:17.709Z,1003.10
2022-11-04T09:38:18.319Z,1003.12
2022-11-04T09:39:17.472Z,1003.13
2022-11-04T09:40:17.475Z,1003.15
2022-11-04T09:41:17.469Z,1003.18
2022-11-04T09:42:17.471Z,1003.21
2022-11-04T09:43:19.230Z,1003.25
2022-11-04T09:44:17.434Z,1003.25
2022-11-04T09:45:22.066Z,1003.35
2022-11-04T09:46:18.392Z,1003.35
2022-11-04T09:47:21.616Z,1003.34
2022-11-04T09:48:17.371Z,1003.34
2022-11-04T09:49:17.370Z,1003.35
2022-11-04T09:50:17.369Z,1003.35
2022-11-04T09:51:39.797Z,1003.31
2022-11-04T09:52:18.321Z,1003.29
2022-11-04T09:53:17.320Z,1003.33
2022-11-04T09:54:17.334Z,1003.27
2022-11-04T09:55:17.293Z,1003.23
2022-11-04T09:56:17.308Z,1003.28
2022-11-04T09:57:17.250Z,1003.20
2022-11-04T09:58:17.375Z,1003.21
2022-11-04T09:59:17.349Z,1003.19
2022-11-04T10:00:17.231Z,1003.22
2022-11-04T10:01:17.315Z,1003.29
2022-11-04T10:02:21.914Z,1003.25
2022-11-04T10:03:18.218Z,1003.30
2022-11-04T10:04:25.069Z,1003.31
2022-11-04T10:05:17.152Z,1003.33
2022-11-04T10:06:17.149Z,1003.39
2022-11-04T10:07:17.125Z,1003.43
2022-11-04T10:08:17.135Z,1003.43
2022-11-04T10:09:17.095Z,1003.45
2022-11-04T10:10:17.093Z,1003.46
2022-11-04T10:11:17.094Z,1003.45
2022-11-04T10:12:17.070Z,1003.49
2022-11-04T10:13:17.065Z,1003.43
2022-11-04T10:14:17.019Z,1003.49
2022-11-04T10:15:17.013Z,1003.48
2022-11-04T10:16:17.010Z,1003.49
2022-11-04T10:17:16.981Z,1003.49
2022-11-04T10:18:16.994Z,1003.47
2022-11-04T10:19:16.980Z,1003.42
2022-11-04T10:20:16.970Z,1003.38
2022-11-04T10:21:16.942Z,1003.37
2022-11-04T10:22:16.944Z,1003.35
2022-11-04T10:23:16.928Z,1003.33
2022-11-04T10:24:16.889Z,1003.31
2022-11-04T10:25:16.879Z,1003.35
2022-11-04T10:26:16.886Z,1003.37
2022-11-04T10:27:16.891Z,1003.39
2022-11-04T10:28:16.851Z,1003.36
2022-11-04T10:29:16.844Z,1003.40
2022-11-04T10:30:16.825Z,1003.38
2022-11-04T10:31:16.829Z,1003.41
2022-11-04T10:32:21.888Z,1003.39
2022-11-04T10:33:17.829Z,1003.44
2022-11-04T10:34:16.785Z,1003.46
2022-11-04T10:35:16.747Z,1003.53
2022-11-04T10:36:16.750Z,1003.54
2022-11-04T10:37:16.760Z,1003.50
2022-11-04T10:38:19.760Z,1003.48
2022-11-04T10:39:16.729Z,1003.47
2022-11-04T10:40:16.687Z,1003.45
2022-11-04T10:41:16.686Z,1003.43
2022-11-04T10:42:16.718Z,1003.43
2022-11-04T10:43:16.689Z,1003.45
2022-11-04T10:44:16.631Z,1003.44
2022-11-04T10:45:16.616Z,1003.48
2022-11-04T10:46:16.624Z,1003.51
2022-11-04T10:47:16.596Z,1003.53
2022-11-04T10:48:16.585Z,1003.51
2022-11-04T10:49:16.580Z,1003.48
2022-11-04T10:50:32.046Z,1003.60
2022-11-04T10:51:17.544Z,1003.51
2022-11-04T10:52:20.656Z,1003.59
2022-11-04T10:53:17.536Z,1003.59
2022-11-04T10:54:16.521Z,1003.63
2022-11-04T10:55:16.575Z,1003.58
2022-11-04T10:56:16.564Z,1003.63
2022-11-04T10:57:16.478Z,1003.63
2022-11-04T10:58:16.478Z,1003.62
2022-11-04T10:59:20.249Z,1003.64
2022-11-04T11:00:16.432Z,1003.67
2022-11-04T11:01:16.628Z,1003.69
2022-11-04T11:02:16.446Z,1003.63
2022-11-04T11:03:16.411Z,1003.69
2022-11-04T11:04:16.356Z,1003.66
2022-11-04T11:05:16.362Z,1003.67
2022-11-04T11:06:16.346Z,1003.70
2022-11-04T11:07:16.314Z,1003.69
2022-11-04T11:08:16.324Z,1003.73
2022-11-04T11:09:16.304Z,1003.74
2022-11-04T11:10:16.282Z,1003.72
2022-11-04T11:11:16.287Z,1003.73
2022-11-04T11:12:48.988Z,1003.77
2022-11-04T11:14:26.184Z,1003.80
2022-11-04T11:15:26.176Z,1003.81
2022-11-04T11:16:26.142Z,1003.79
2022-11-04T11:17:26.167Z,1003.86
2022-11-04T11:18:26.133Z,1003.79
2022-11-04T11:19:26.122Z,1003.79
2022-11-04T11:20:26.113Z,1003.87
2022-11-04T11:21:26.120Z,1003.84
2022-11-04T11:22:26.111Z,1003.86
2022-11-04T11:23:26.070Z,1003.88
2022-11-04T11:24:26.075Z,1003.84
2022-11-04T11:25:26.054Z,1003.85
2022-11-04T11:26:26.022Z,1003.97
2022-11-04T11:27:26.035Z,1003.89
2022-11-04T11:28:25.997Z,1003.87
2022-11-04T11:29:26.026Z,1003.92
2022-11-04T11:30:26.027Z,1003.84
2022-11-04T11:31:25.961Z,1003.88
2022-11-04T11:32:25.963Z,1003.87
2022-11-04T11:33:25.949Z,1003.90
2022-11-04T11:34:25.962Z,1003.82
2022-11-04T11:35:25.983Z,1003.87
2022-11-04T11:36:25.933Z,1003.84
2022-11-04T11:37:25.890Z,1003.79
2022-11-04T11:38:25.924Z,1003.79
2022-11-04T11:39:25.870Z,1003.78
2022-11-04T11:40:25.874Z,1003.81
2022-11-04T11:41:26.248Z,1003.77
2022-11-04T11:42:25.819Z,1003.82
2022-11-04T11:43:25.831Z,1003.85
2022-11-04T11:44:25.831Z,1003.91
2022-11-04T11:45:25.800Z,1003.90
2022-11-04T11:46:25.806Z,1003.88
2022-11-04T11:47:25.761Z,1003.93
2022-11-04T11:48:26.622Z,1003.94
2022-11-04T11:49:26.806Z,1003.99
2022-11-04T11:50:25.749Z,1004.00
2022-11-04T11:51:30.727Z,1003.90
2022-11-04T11:52:26.700Z,1003.92
2022-11-04T11:53:26.487Z,1003.95
2022-11-04T11:54:25.758Z,1003.85
2022-11-04T11:55:25.748Z,1003.90
2022-11-04T11:56:25.652Z,1003.84
2022-11-04T11:57:25.805Z,1003.91
2022-11-04T12:00:44.251Z,1003.97
2022-11-04T12:01:26.756Z,1004.00
2022-11-04T12:02:25.701Z,1004.00
2022-11-04T12:03:26.478Z,1004.01
2022-11-04T12:06:26.800Z,1004.05
2022-11-04T12:09:30.032Z,1004.00
2022-11-04T12:10:49.214Z,1004.08
2022-11-04T12:11:26.452Z,1004.09
2022-11-04T12:12:25.455Z,1004.01
2022-11-04T12:13:28.403Z,1004.07
2022-11-04T12:14:25.416Z,1004.04
2022-11-04T12:15:25.407Z,1004.04
2022-11-04T12:16:25.416Z,1004.01
2022-11-04T12:17:26.385Z,1004.05
2022-11-04T12:18:25.398Z,1004.05